createdAt,value
2023-05-18T00:00:14.299Z,9.30
2023-05-18T00:02:43.392Z,9.20
2023-05-18T00:05:13.403Z,9.20
2023-05-18T00:07:41.975Z,9.20
2023-05-18T00:10:11.961Z,9.20
2023-05-18T00:12:41.731Z,9.20
2023-05-18T00:15:11.536Z,9.10
2023-05-18T00:17:40.337Z,9.10
2023-05-18T00:20:09.807Z,9.10
2023-05-18T00:22:42.768Z,9.10
2023-05-18T00:25:11.677Z,9.00
2023-05-18T00:27:40.331Z,9.00
2023-05-18T00:30:09.738Z,9.00
2023-05-18T00:32:38.459Z,9.00
2023-05-18T00:35:08.408Z,9.00
2023-05-18T00:37:44.044Z,8.90
2023-05-18T00:40:13.752Z,8.90
2023-05-18T00:42:42.296Z,9.00
2023-05-18T00:45:14.763Z,9.00
2023-05-18T00:47:43.406Z,9.00
2023-05-18T00:50:12.645Z,8.90
2023-05-18T00:52:43.856Z,8.90
2023-05-18T00:55:14.072Z,8.90
2023-05-18T00:57:45.646Z,8.90
2023-05-18T01:00:15.196Z,8.90
2023-05-18T01:02:45.931Z,8.80
2023-05-18T01:05:14.757Z,8.80
2023-05-18T01:07:44.900Z,8.80
2023-05-18T01:10:17.057Z,8.80
2023-05-18T01:12:50.414Z,8.80
2023-05-18T01:15:23.588Z,8.80
2023-05-18T01:18:10.520Z,8.80
2023-05-18T01:20:46.152Z,8.80
2023-05-18T01:23:55.032Z,8.80
2023-05-18T01:26:30.093Z,8.70
2023-05-18T01:29:01.683Z,8.70
2023-05-18T01:31:31.424Z,8.70
2023-05-18T01:34:00.325Z,8.70
2023-05-18T01:36:29.376Z,8.70
2023-05-18T01:39:01.788Z,8.60
2023-05-18T01:41:36.765Z,8.60
2023-05-18T01:44:12.550Z,8.60
2023-05-18T01:46:49.149Z,8.60
2023-05-18T01:49:29.590Z,8.60
2023-05-18T01:52:02.541Z,8.60
2023-05-18T01:54:33.584Z,8.60
2023-05-18T01:57:05.233Z,8.60
2023-05-18T01:59:34.693Z,8.50
2023-05-18T02:02:04.092Z,8.60
2023-05-18T02:04:32.839Z,8.50
2023-05-18T02:07:01.582Z,8.50
2023-05-18T02:09:31.482Z,8.50
2023-05-18T02:12:00.186Z,8.50
2023-05-18T02:14:30.452Z,8.50
2023-05-18T02:16:59.641Z,8.50
2023-05-18T02:19:31.046Z,8.50
2023-05-18T02:21:59.642Z,8.50
2023-05-18T02:24:28.216Z,8.50
2023-05-18T02:26:56.773Z,8.40
2023-05-18T02:29:25.407Z,8.40
2023-05-18T02:31:55.527Z,8.40
2023-05-18T02:34:24.911Z,8.40
2023-05-18T02:36:53.634Z,8.40
2023-05-18T02:39:22.294Z,8.40
2023-05-18T02:41:51.064Z,8.50
2023-05-18T02:44:19.629Z,8.40
2023-05-18T02:46:48.219Z,8.40
2023-05-18T02:49:18.328Z,8.40
2023-05-18T02:51:46.918Z,8.30
2023-05-18T02:54:15.599Z,8.30
2023-05-18T02:56:45.377Z,8.30
2023-05-18T02:59:23.299Z,8.30
2023-05-18T03:01:51.980Z,8.30
2023-05-18T03:04:26.131Z,8.30
2023-05-18T03:06:57.472Z,8.30
2023-05-18T03:09:26.578Z,8.30
2023-05-18T03:11:56.845Z,8.30
2023-05-18T03:14:25.745Z,8.30
2023-05-18T03:16:58.080Z,8.20
2023-05-18T03:19:28.641Z,8.20
2023-05-18T03:21:58.068Z,8.20
2023-05-18T03:24:30.573Z,8.20
2023-05-18T03:27:02.464Z,8.20
2023-05-18T03:29:31.724Z,8.20
2023-05-18T03:32:03.708Z,8.30
2023-05-18T03:34:33.836Z,8.20
2023-05-18T03:37:03.176Z,8.20
2023-05-18T03:39:33.990Z,8.20
2023-05-18T03:42:02.865Z,8.20
2023-05-18T03:44:31.988Z,8.20
2023-05-18T03:47:00.984Z,8.20
2023-05-18T03:49:29.940Z,8.20
2023-05-18T03:52:00.131Z,8.20
2023-05-18T03:54:28.838Z,8.20
2023-05-18T03:56:57.455Z,8.20
2023-05-18T03:59:26.313Z,8.20
2023-05-18T04:01:55.024Z,8.20
2023-05-18T04:04:27.562Z,8.30
2023-05-18T04:06:56.560Z,8.30
2023-05-18T04:09:28.215Z,8.30
2023-05-18T04:11:57.113Z,8.30
2023-05-18T04:14:28.237Z,8.30
2023-05-18T04:16:58.459Z,8.30
2023-05-18T04:19:27.298Z,8.30
2023-05-18T04:21:55.961Z,8.40
2023-05-18T04:24:27.077Z,8.40
2023-05-18T04:26:56.273Z,8.40
2023-05-18T04:29:25.033Z,8.50
2023-05-18T04:31:54.067Z,8.50
2023-05-18T04:34:24.405Z,8.50
2023-05-18T04:36:54.641Z,8.40
2023-05-18T04:39:23.621Z,8.50
2023-05-18T04:41:58.322Z,8.40
2023-05-18T04:44:29.682Z,8.50
2023-05-18T04:47:01.536Z,8.60
2023-05-18T04:49:33.052Z,8.60
2023-05-18T04:52:01.713Z,8.50
2023-05-18T04:54:32.043Z,8.60
2023-05-18T04:57:02.276Z,8.70
2023-05-18T04:59:31.052Z,8.60
2023-05-18T05:01:59.717Z,8.50
2023-05-18T05:39:59.537Z,9.20
2023-05-18T05:42:30.105Z,9.40
2023-05-18T05:44:59.255Z,9.40
2023-05-18T05:47:29.276Z,9.40
2023-05-18T05:49:58.207Z,9.50
2023-05-18T05:52:28.913Z,9.60
2023-05-18T05:54:59.984Z,9.50
2023-05-18T05:57:29.953Z,9.60
2023-05-18T05:59:58.659Z,10.00
2023-05-18T06:02:28.766Z,10.50
2023-05-18T06:04:57.496Z,10.90
2023-05-18T06:07:26.674Z,11.30
2023-05-18T06:09:55.979Z,11.60
2023-05-18T06:12:26.107Z,11.30
2023-05-18T06:14:57.500Z,11.10
2023-05-18T06:17:27.164Z,11.10
2023-05-18T06:19:56.474Z,11.10
2023-05-18T06:22:25.608Z,11.00
2023-05-18T06:25:17.761Z,11.20
2023-05-18T06:28:06.600Z,10.90
2023-05-18T06:30:42.917Z,10.90
2023-05-18T06:33:23.866Z,11.10
2023-05-18T06:35:52.514Z,11.20
2023-05-18T06:38:21.154Z,11.40
2023-05-18T06:40:50.402Z,11.50
2023-05-18T06:43:20.424Z,11.30
2023-05-18T06:46:19.749Z,11.40
2023-05-18T06:48:48.507Z,11.70
2023-05-18T06:51:17.379Z,12.00
2023-05-18T06:53:47.494Z,12.00
2023-05-18T06:56:16.831Z,12.20
2023-05-18T06:58:48.045Z,12.40
2023-05-18T07:01:18.230Z,12.30
2023-05-18T07:03:48.321Z,12.20
2023-05-18T07:06:17.013Z,12.10
2023-05-18T07:08:47.374Z,12.00
2023-05-18T07:11:17.141Z,12.30
2023-05-18T07:13:47.103Z,12.70
2023-05-18T07:16:15.848Z,12.80
2023-05-18T07:18:44.469Z,12.50
2023-05-18T07:21:13.055Z,12.70
2023-05-18T07:23:41.817Z,12.80
2023-05-18T07:26:12.108Z,12.80
2023-05-18T07:28:40.773Z,13.00
2023-05-18T07:31:11.002Z,12.80
2023-05-18T07:33:41.163Z,12.50
2023-05-18T07:36:10.101Z,12.50
2023-05-18T07:38:38.675Z,12.40
2023-05-18T07:41:07.420Z,12.70
2023-05-18T07:43:36.252Z,12.70
2023-05-18T07:46:04.882Z,12.50
2023-05-18T07:48:34.836Z,12.80
2023-05-18T07:51:03.436Z,12.90
2023-05-18T07:53:32.084Z,12.90
2023-05-18T07:56:00.646Z,12.50
2023-05-18T07:58:29.247Z,12.60
2023-05-18T08:00:58.103Z,12.70
2023-05-18T08:03:26.863Z,12.90
2023-05-18T08:05:56.873Z,12.70
2023-05-18T08:08:25.581Z,12.60
2023-05-18T08:10:54.246Z,12.40
2023-05-18T08:13:22.888Z,12.50
2023-05-18T08:16:02.945Z,12.70
2023-05-18T08:18:38.918Z,12.70
2023-05-18T08:21:10.197Z,12.70
2023-05-18T08:23:39.666Z,12.50
2023-05-18T08:26:10.528Z,12.70
2023-05-18T08:28:40.158Z,12.80
2023-05-18T08:31:08.801Z,13.00
2023-05-18T08:33:37.377Z,12.90
2023-05-18T08:36:06.364Z,12.80
2023-05-18T08:38:36.545Z,12.80
2023-05-18T08:41:14.086Z,12.80
2023-05-18T08:43:47.162Z,12.80
2023-05-18T08:46:22.100Z,12.80
2023-05-18T08:48:54.471Z,12.80
2023-05-18T08:51:23.797Z,12.70
2023-05-18T08:53:55.414Z,12.90
2023-05-18T08:56:25.488Z,13.20
2023-05-18T08:58:56.728Z,13.00
2023-05-18T09:01:29.276Z,13.10
2023-05-18T09:03:59.643Z,12.90
2023-05-18T09:06:29.049Z,12.90
2023-05-18T09:08:59.291Z,12.90
2023-05-18T09:11:28.735Z,13.10
2023-05-18T09:13:57.358Z,13.10
2023-05-18T09:16:26.314Z,13.20
2023-05-18T09:18:55.869Z,13.10
2023-05-18T09:21:24.628Z,13.20
2023-05-18T09:23:53.978Z,13.20
2023-05-18T09:26:24.141Z,13.40
2023-05-18T09:28:54.365Z,13.20
2023-05-18T09:31:24.831Z,13.30
2023-05-18T09:33:54.081Z,13.60
2023-05-18T09:36:28.526Z,13.60
2023-05-18T09:38:58.637Z,13.60
2023-05-18T09:41:29.436Z,13.70
2023-05-18T09:43:58.127Z,13.80
2023-05-18T09:46:26.940Z,13.70
2023-05-18T09:48:57.297Z,13.40
2023-05-18T09:51:26.130Z,13.30
2023-05-18T09:53:56.702Z,13.30
2023-05-18T09:56:27.099Z,13.40
2023-05-18T09:58:57.292Z,13.60
2023-05-18T10:01:26.899Z,13.60
2023-05-18T10:04:04.414Z,13.60
2023-05-18T10:06:33.100Z,13.70
2023-05-18T10:09:05.776Z,13.70
2023-05-18T10:11:35.083Z,13.20
2023-05-18T10:14:05.140Z,13.50
2023-05-18T10:16:34.324Z,13.80
2023-05-18T10:19:04.825Z,13.80
2023-05-18T10:21:35.956Z,13.80
2023-05-18T10:24:08.805Z,14.00
2023-05-18T10:26:40.288Z,14.00
2023-05-18T10:29:11.562Z,14.00
2023-05-18T10:31:41.465Z,13.80
2023-05-18T10:34:11.520Z,13.90
2023-05-18T10:36:40.618Z,13.80
2023-05-18T10:39:11.236Z,13.90
2023-05-18T10:41:41.119Z,14.10
2023-05-18T10:44:11.549Z,14.20
2023-05-18T10:46:40.867Z,14.20
2023-05-18T10:49:15.103Z,14.20
2023-05-18T10:51:44.759Z,14.10
2023-05-18T10:54:15.392Z,14.40
2023-05-18T10:56:47.874Z,14.50
2023-05-18T10:59:19.043Z,14.40
2023-05-18T11:01:50.811Z,14.50
2023-05-18T11:04:24.796Z,14.40
2023-05-18T11:06:59.006Z,14.50
2023-05-18T11:09:29.756Z,14.40
2023-05-18T11:11:59.623Z,14.60
2023-05-18T11:14:30.548Z,14.60
2023-05-18T11:17:22.006Z,14.40
2023-05-18T11:20:17.392Z,14.20
2023-05-18T11:22:51.524Z,14.00
2023-05-18T11:25:39.752Z,14.00
2023-05-18T11:28:10.325Z,14.00
2023-05-18T11:30:53.441Z,14.10
2023-05-18T11:33:30.062Z,14.20
2023-05-18T11:36:03.907Z,14.20
2023-05-18T11:38:53.848Z,14.20
2023-05-18T11:41:36.349Z,14.40
2023-05-18T11:44:17.048Z,14.30
2023-05-18T11:47:01.109Z,14.30
2023-05-18T11:49:31.118Z,14.40
2023-05-18T11:52:07.377Z,14.40
2023-05-18T11:54:45.364Z,14.30
2023-05-18T11:57:15.558Z,14.30
2023-05-18T11:59:45.459Z,14.50
2023-05-18T12:02:22.946Z,14.60
2023-05-18T12:04:55.413Z,14.30
2023-05-18T12:07:25.371Z,14.50
2023-05-18T12:09:53.866Z,14.50
2023-05-18T12:12:24.167Z,14.40
2023-05-18T12:14:56.646Z,14.60
2023-05-18T12:17:39.236Z,14.50
2023-05-18T12:20:09.602Z,14.50
2023-05-18T12:22:38.376Z,14.60
2023-05-18T12:25:08.256Z,14.60
2023-05-18T12:27:40.733Z,14.70
2023-05-18T12:30:12.284Z,14.60
2023-05-18T12:32:46.358Z,14.60
2023-05-18T12:35:14.886Z,14.70
2023-05-18T12:37:45.750Z,14.70
2023-05-18T12:40:16.601Z,14.70
2023-05-18T13:37:34.777Z,14.80
2023-05-18T13:40:03.307Z,14.80
2023-05-18T13:42:31.712Z,14.90
2023-05-18T13:45:00.202Z,14.80
2023-05-18T13:47:28.765Z,14.90
2023-05-18T13:49:57.199Z,14.80
2023-05-18T13:52:26.195Z,15.00
2023-05-18T13:54:55.995Z,15.10
2023-05-18T13:57:26.338Z,15.10
2023-05-18T13:59:54.929Z,15.10
2023-05-18T14:02:23.420Z,15.30
2023-05-18T14:26:24.341Z,15.20
2023-05-18T14:28:52.878Z,15.10
2023-05-18T14:31:21.466Z,15.00
2023-05-18T14:33:49.935Z,15.10
2023-05-18T14:36:20.537Z,15.20
2023-05-18T14:38:50.337Z,15.20
2023-05-18T14:41:18.774Z,15.00
2023-05-18T14:43:51.102Z,15.00
2023-05-18T14:46:19.596Z,14.80
2023-05-18T14:48:48.048Z,14.80
2023-05-18T14:51:18.459Z,14.90
2023-05-18T14:53:47.513Z,14.90
2023-05-18T14:56:16.151Z,14.90
2023-05-18T14:58:44.655Z,14.80
2023-05-18T15:01:14.491Z,14.90
2023-05-18T15:03:42.997Z,14.90
2023-05-18T15:06:11.835Z,14.70
2023-05-18T15:08:40.290Z,14.70
2023-05-18T15:11:08.736Z,14.80
2023-05-18T15:13:37.234Z,14.90
2023-05-18T15:16:06.040Z,14.90
2023-05-18T15:18:35.925Z,14.70
2023-05-18T15:21:04.408Z,14.50
2023-05-18T15:23:32.931Z,14.70
2023-05-18T15:26:01.484Z,14.70
2023-05-18T15:28:29.926Z,14.60
2023-05-18T15:30:58.392Z,14.60
2023-05-18T15:33:27.122Z,14.50
2023-05-18T15:35:57.000Z,14.40
2023-05-18T15:38:25.733Z,14.20
2023-05-18T15:40:56.080Z,14.10
2023-05-18T15:43:26.264Z,14.00
2023-05-18T15:45:54.758Z,14.10
2023-05-18T15:48:23.718Z,14.00
2023-05-18T15:50:52.162Z,14.00
2023-05-18T15:53:22.085Z,14.00
2023-05-18T15:55:51.014Z,13.90
2023-05-18T15:58:19.526Z,13.70
2023-05-18T16:00:48.024Z,13.60
2023-05-18T16:03:17.243Z,13.60
2023-05-18T16:05:45.851Z,13.70
2023-05-18T16:08:14.290Z,13.60
2023-05-18T16:10:44.099Z,13.50
2023-05-18T16:13:12.622Z,13.50
2023-05-18T16:34:59.388Z,13.50
2023-05-18T16:37:27.964Z,13.60
2023-05-18T16:39:56.400Z,13.50
2023-05-18T16:42:25.920Z,13.40
2023-05-18T16:44:54.657Z,13.40
2023-05-18T16:47:23.397Z,13.40
2023-05-18T16:59:37.283Z,13.30
2023-05-18T17:02:06.199Z,13.30
2023-05-18T17:04:34.709Z,13.30
2023-05-18T17:07:03.191Z,13.20
2023-05-18T17:09:31.644Z,13.20
2023-05-18T17:12:00.164Z,13.10
2023-05-18T17:14:28.617Z,13.10
2023-05-18T17:16:58.441Z,13.10
2023-05-18T17:26:05.850Z,12.90
2023-05-18T17:28:34.955Z,12.80
2023-05-18T17:31:03.457Z,12.80
2023-05-18T17:33:33.323Z,12.80
2023-05-18T17:36:01.833Z,12.70
2023-05-18T17:38:30.278Z,12.70
2023-05-18T17:40:58.782Z,12.70
2023-05-18T17:43:27.286Z,12.60
2023-05-18T17:45:55.779Z,12.60
2023-05-18T17:48:24.200Z,12.60
2023-05-18T17:50:54.114Z,12.60
2023-05-18T17:53:22.705Z,12.50
2023-05-18T17:55:51.214Z,12.50
2023-05-18T17:58:19.659Z,12.40
2023-05-18T18:00:48.389Z,12.40
2023-05-18T18:03:17.471Z,12.30
2023-05-18T18:05:46.338Z,12.30
2023-05-18T18:08:16.545Z,12.20
2023-05-18T18:10:45.102Z,12.20
2023-05-18T18:13:13.699Z,12.20
2023-05-18T18:15:42.306Z,12.20
2023-05-18T18:18:11.146Z,12.10
2023-05-18T18:20:39.894Z,12.10
2023-05-18T18:23:08.764Z,12.10
2023-05-18T18:25:38.929Z,12.10
2023-05-18T18:28:08.260Z,12.10
2023-05-18T18:30:37.043Z,12.00
2023-05-18T18:33:05.848Z,12.00
2023-05-18T18:35:34.558Z,12.00
2023-05-18T18:38:04.156Z,12.00
2023-05-18T18:40:33.986Z,11.90
2023-05-18T18:43:04.462Z,12.00
2023-05-18T18:45:33.397Z,11.90
2023-05-18T18:48:02.975Z,11.80
2023-05-18T18:50:31.895Z,11.80
2023-05-18T18:53:00.695Z,11.80
2023-05-18T18:55:29.774Z,11.70
2023-05-18T18:57:59.659Z,11.70
2023-05-18T19:00:30.003Z,11.70
2023-05-18T19:02:58.624Z,11.70
2023-05-18T19:05:28.411Z,11.70
2023-05-18T19:07:57.287Z,11.60
2023-05-18T19:10:26.119Z,11.60
2023-05-18T19:12:55.050Z,11.60
2023-05-18T19:15:23.687Z,11.50
2023-05-18T19:17:54.137Z,11.40
2023-05-18T19:20:24.384Z,11.30
2023-05-18T19:22:54.294Z,11.20
2023-05-18T19:25:24.668Z,11.10
2023-05-18T19:27:54.653Z,11.00
2023-05-18T19:30:24.569Z,10.90
2023-05-18T19:32:54.890Z,10.80
2023-05-18T19:35:24.368Z,10.70
2023-05-18T19:37:53.480Z,10.60
2023-05-18T19:40:22.833Z,10.60
2023-05-18T19:42:51.663Z,10.50
2023-05-18T19:45:20.317Z,10.50
2023-05-18T19:47:48.966Z,10.40
2023-05-18T19:50:19.026Z,10.40
2023-05-18T19:52:49.572Z,10.40
2023-05-18T19:55:18.328Z,10.30
2023-05-18T19:57:46.956Z,10.30
2023-05-18T20:00:16.057Z,10.20
2023-05-18T20:02:44.708Z,10.20
2023-05-18T20:05:18.699Z,10.20
2023-05-18T20:07:48.860Z,10.10
2023-05-18T20:10:18.620Z,10.10
2023-05-18T20:12:48.536Z,10.10
2023-05-18T20:15:17.420Z,10.00
2023-05-18T20:17:46.161Z,10.00
2023-05-18T20:20:14.842Z,10.00
2023-05-18T20:22:43.492Z,10.00
2023-05-18T20:25:13.563Z,10.00
2023-05-18T20:27:42.139Z,10.00
2023-05-18T20:30:11.459Z,10.00
2023-05-18T20:32:40.147Z,10.00
2023-05-18T20:35:08.793Z,10.00
2023-05-18T20:37:37.752Z,10.00
2023-05-18T20:40:09.514Z,10.00
2023-05-18T20:42:40.634Z,10.00
2023-05-18T20:45:10.448Z,10.00
2023-05-18T20:47:41.895Z,10.00
2023-05-18T20:50:11.290Z,10.00
2023-05-18T20:52:39.835Z,10.00
2023-05-18T20:55:09.376Z,10.00
2023-05-18T20:57:40.167Z,10.00
2023-05-18T21:00:10.260Z,10.00
2023-05-18T21:02:39.219Z,10.00
2023-05-18T21:05:08.411Z,9.90
2023-05-18T21:07:40.326Z,9.90
2023-05-18T21:10:09.929Z,9.90
2023-05-18T21:12:42.295Z,10.00
2023-05-18T21:15:11.496Z,9.90
2023-05-18T21:17:40.084Z,10.00
2023-05-18T21:20:09.996Z,9.90
2023-05-18T21:22:38.543Z,9.90
2023-05-18T21:25:08.196Z,9.90
2023-05-18T21:27:37.365Z,9.90
2023-05-18T21:30:08.960Z,9.90
2023-05-18T21:32:37.806Z,9.90
2023-05-18T21:35:07.454Z,9.90
2023-05-18T21:37:36.028Z,9.90
2023-05-18T21:40:04.993Z,9.90
2023-05-18T21:42:33.813Z,9.90
2023-05-18T21:45:02.591Z,9.90
2023-05-18T21:47:37.580Z,9.90
2023-05-18T21:50:07.188Z,9.80
2023-05-18T21:52:35.783Z,9.90
2023-05-18T21:55:04.793Z,9.80
2023-05-18T21:57:34.132Z,9.80
2023-05-18T22:00:03.001Z,9.80
2023-05-18T22:02:44.464Z,9.80
2023-05-18T22:05:13.116Z,9.80
2023-05-18T22:07:41.739Z,9.80
2023-05-18T22:10:11.285Z,9.90
2023-05-18T22:12:41.186Z,9.80
2023-05-18T22:15:11.610Z,9.80
2023-05-18T22:17:40.448Z,9.80
2023-05-18T22:20:11.860Z,9.80
2023-05-18T22:22:41.420Z,9.80
2023-05-18T22:25:10.835Z,9.80
2023-05-18T22:27:39.498Z,9.80
2023-05-18T22:30:09.355Z,9.80
2023-05-18T22:32:39.418Z,9.80
2023-05-18T22:35:11.112Z,9.80
2023-05-18T22:37:39.697Z,9.80
2023-05-18T22:40:09.989Z,9.80
2023-05-18T22:42:38.626Z,9.80
2023-05-18T22:45:08.255Z,9.80
2023-05-18T23:03:42.534Z,9.80
2023-05-18T23:06:11.179Z,9.80
2023-05-18T23:08:39.715Z,9.70
2023-05-18T23:11:08.383Z,9.70
2023-05-18T23:13:37.779Z,9.70
2023-05-18T23:16:10.470Z,9.70
2023-05-18T23:18:40.108Z,9.70
2023-05-18T23:21:10.596Z,9.70
2023-05-18T23:23:39.153Z,9.70
2023-05-18T23:26:09.247Z,9.70
2023-05-18T23:28:37.922Z,9.70
2023-05-18T23:31:06.519Z,9.70
2023-05-18T23:33:35.604Z,9.70
2023-05-18T23:36:05.006Z,9.70
2023-05-18T23:38:37.955Z,9.70
2023-05-18T23:41:08.097Z,9.70
2023-05-18T23:43:37.319Z,9.70
2023-05-18T23:46:06.751Z,9.70
2023-05-18T23:48:36.019Z,9.60
2023-05-18T23:51:04.985Z,9.60
2023-05-18T23:53:36.280Z,9.60
2023-05-18T23:56:06.554Z,9.60
2023-05-18T23:58:35.709Z,9.60
